Terminal Aerodrome Forecast
Issued by NWS Mt. Holly, NJ

Home | Current Version | Previous Version | Text Only | Print | Product List | Glossary On
Versions: 1 2 3 4 5 6 7 8 9 10 11 12 13 14 15 16 17 18 19 20
000
FTUS41 KPHI 300538
TAFRDG
TAF
KRDG 300538Z 3006/0106 03006KT P6SM SCT250
     FM301000 05004KT P6SM BKN050
      TEMPO 3012/3014 -SHRA
     FM301400 10004KT P6SM BKN035
     FM302200 11006KT P6SM OVC025
     FM010000 11006KT P6SM OVC015
     FM010300 11008KT 4SM BR OVC006=

USA.gov is the U.S. government's official web portal to all federal, state and local government web resources and services.